Time;durP1;ratioP1;P1;durP2;ratioP2;P2;SDS_P1;SDS_P2;PMS_P1;PMS_P2;Temp;Humidity;BMP_temperature;BMP_pressure;BME280_temperature;BME280_humidity;BME280_pressure;Samples;Min_cycle;Max_cycle;Signal;HPM_P1;HPM_P2
2023/07/18 00:03:00;;;;;;;5.47;3.70;;;;;;;21.58;100.00;100020.00;6349939;27;20064;-74
2023/07/18 00:06:01;;;;;;;6.30;4.20;;;;;;;21.74;100.00;100027.13;6349846;28;20056;-74
2023/07/18 00:09:02;;;;;;;6.33;4.23;;;;;;;21.76;100.00;100026.97;6353593;27;20055;-74
2023/07/18 00:12:04;;;;;;;5.57;4.20;;;;;;;21.38;100.00;100029.25;6376363;27;20047;-74
2023/07/18 00:15:09;;;;;;;6.45;4.00;;;;;;;21.38;100.00;100034.56;6375968;27;20431;-74
2023/07/18 00:18:10;;;;;;;4.93;3.53;;;;;;;21.30;100.00;100025.56;6374800;27;20477;-74
2023/07/18 00:21:12;;;;;;;4.90;3.65;;;;;;;21.46;100.00;100032.78;6374080;27;20051;-74
2023/07/18 00:24:13;;;;;;;7.38;3.95;;;;;;;21.48;100.00;100037.94;6374839;27;20487;-74
2023/07/18 00:27:16;;;;;;;6.13;3.47;;;;;;;21.55;100.00;100038.91;6374753;27;20505;-74
2023/07/18 00:30:17;;;;;;;4.78;4.07;;;;;;;21.55;100.00;100041.56;6375572;27;20297;-74
2023/07/18 00:33:18;;;;;;;6.68;3.80;;;;;;;21.61;100.00;100043.56;6374089;27;20138;-74
2023/07/18 00:36:19;;;;;;;5.23;3.63;;;;;;;21.60;100.00;100052.53;6366176;27;20497;-74
2023/07/18 00:39:20;;;;;;;6.20;3.90;;;;;;;21.04;100.00;100048.75;6349270;28;20146;-74
2023/07/18 00:42:20;;;;;;;6.87;4.70;;;;;;;20.72;100.00;100043.16;6349907;28;20055;-74
2023/07/18 00:45:21;;;;;;;10.53;5.87;;;;;;;20.70;100.00;100039.03;6348993;28;20093;-74
2023/07/18 00:48:22;;;;;;;6.50;4.93;;;;;;;20.63;100.00;100033.53;6348929;28;20051;-74
2023/07/18 00:51:28;;;;;;;8.97;5.47;;;;;;;20.82;100.00;100048.34;6349831;28;20136;-74
2023/07/18 00:54:29;;;;;;;11.15;5.65;;;;;;;20.91;100.00;100044.72;6348298;28;20065;-74
2023/07/18 00:57:31;;;;;;;6.43;4.70;;;;;;;20.76;100.00;100051.63;6348535;28;20049;-74
2023/07/18 01:00:32;;;;;;;;;;;;;;;20.93;100.00;100042.75;6349270;28;20104;-74
2023/07/18 01:03:34;;;;;;;6.03;4.40;;;;;;;21.00;100.00;100042.94;6348074;28;19919;-74
2023/07/18 01:06:36;;;;;;;8.13;4.68;;;;;;;20.91;100.00;100047.38;6348370;28;20084;-74
2023/07/18 01:09:39;;;;;;;4.32;3.45;;;;;;;20.83;100.00;100043.88;6348045;28;20051;-74
2023/07/18 01:12:40;;;;;;;3.85;3.13;;;;;;;20.60;100.00;100033.00;6349120;28;20104;-74
2023/07/18 01:15:44;;;;;;;5.00;3.50;;;;;;;20.39;100.00;100039.50;6369098;27;20463;-74
2023/07/18 01:18:46;;;;;;;4.20;3.58;;;;;;;20.36;100.00;100049.59;6374802;27;20055;-74
2023/07/18 01:21:47;;;;;;;3.85;3.30;;;;;;;20.45;100.00;100052.13;6373769;27;20083;-74
2023/07/18 01:24:48;;;;;;;5.23;3.70;;;;;;;20.75;100.00;100051.78;6374720;27;20047;-71
2023/07/18 01:27:52;;;;;;;7.87;4.00;;;;;;;20.63;100.00;100054.75;6374332;27;20099;-71
2023/07/18 01:30:55;;;;;;;9.82;4.22;;;;;;;20.83;100.00;100055.31;6373897;27;20557;-71
2023/07/18 01:33:56;;;;;;;4.93;3.97;;;;;;;20.37;100.00;100062.69;6373087;27;20050;-71
2023/07/18 01:36:57;;;;;;;4.33;3.33;;;;;;;20.61;100.00;100056.72;6373884;27;20489;-72
2023/07/18 01:39:58;;;;;;;4.37;3.80;;;;;;;20.58;100.00;100059.66;6374005;27;20074;-71
2023/07/18 01:43:00;;;;;;;4.35;3.53;;;;;;;20.76;100.00;100056.13;6372040;27;20059;-71
2023/07/18 01:46:01;;;;;;;4.70;3.42;;;;;;;20.62;100.00;100060.19;6366234;27;20108;-71
2023/07/18 01:49:02;;;;;;;3.83;3.13;;;;;;;20.60;100.00;100060.34;6347975;28;20052;-71
2023/07/18 01:52:05;;;;;;;4.57;3.60;;;;;;;20.69;100.00;100066.50;6346850;28;20065;-71
2023/07/18 01:55:09;;;;;;;4.47;3.20;;;;;;;20.83;100.00;100065.09;6347931;28;20047;-72
2023/07/18 01:58:10;;;;;;;5.28;3.25;;;;;;;20.93;100.00;100068.44;6347906;28;20051;-72
2023/07/18 02:01:11;;;;;;;4.57;3.63;;;;;;;20.92;100.00;100070.25;6346573;28;20498;-71
2023/07/18 02:04:12;;;;;;;5.50;3.73;;;;;;;20.91;100.00;100068.59;6345845;28;20097;-71
2023/07/18 02:07:12;;;;;;;5.73;3.20;;;;;;;20.92;100.00;100072.91;6347587;28;20129;-72
2023/07/18 02:10:19;;;;;;;5.60;3.40;;;;;;;20.93;100.00;100071.91;6347752;28;20527;-72
2023/07/18 02:13:23;;;;;;;7.43;3.28;;;;;;;20.92;100.00;100072.09;6359610;27;20060;-72
2023/07/18 02:16:23;;;;;;;5.68;3.38;;;;;;;20.99;100.00;100067.78;6372128;27;20104;-71
2023/07/18 02:19:24;;;;;;;10.27;3.20;;;;;;;21.00;100.00;100071.28;6372155;27;20051;-72
2023/07/18 02:22:25;;;;;;;4.33;3.27;;;;;;;20.88;100.00;100068.94;6371992;27;20062;-71
2023/07/18 02:25:26;;;;;;;7.33;3.20;;;;;;;20.73;100.00;100075.81;6372063;28;20074;-72
2023/07/18 02:28:27;;;;;;;4.50;2.88;;;;;;;20.73;100.00;100081.09;6372910;27;20100;-72
2023/07/18 02:31:28;;;;;;;4.00;3.17;;;;;;;20.84;100.00;100072.06;6373403;27;20440;-72
2023/07/18 02:34:28;;;;;;;4.13;3.03;;;;;;;20.90;100.00;100082.03;6371435;28;20067;-71
2023/07/18 02:37:29;;;;;;;4.17;3.30;;;;;;;20.72;100.00;100080.28;6372782;27;20059;-72
2023/07/18 02:40:32;;;;;;;3.70;3.00;;;;;;;20.75;100.00;100081.78;6372999;28;20481;-74
2023/07/18 02:43:33;;;;;;;4.07;3.38;;;;;;;20.69;100.00;100088.56;6373153;27;20055;-74
2023/07/18 02:46:34;;;;;;;3.67;3.10;;;;;;;20.81;100.00;100085.63;6376981;27;20103;-74
2023/07/18 02:49:35;;;;;;;4.63;3.13;;;;;;;20.88;100.00;100082.19;6377334;27;20134;-74
2023/07/18 02:52:36;;;;;;;3.50;3.10;;;;;;;20.86;100.00;100088.66;6378680;27;20051;-74
2023/07/18 02:55:36;;;;;;;4.10;3.23;;;;;;;20.82;100.00;100088.13;6378382;27;20043;-74
2023/07/18 02:58:37;;;;;;;4.33;3.10;;;;;;;20.80;100.00;100076.84;6378365;27;20368;-75
2023/07/18 03:01:38;;;;;;;3.83;3.00;;;;;;;20.63;100.00;100085.69;6377015;27;20051;-74
2023/07/18 03:04:39;;;;;;;5.03;3.20;;;;;;;20.82;100.00;100097.91;6377959;27;20379;-74
2023/07/18 03:07:40;;;;;;;5.80;3.30;;;;;;;20.83;100.00;100091.59;6378017;27;20051;-74
2023/07/18 03:10:42;;;;;;;7.80;4.63;;;;;;;20.83;100.00;100096.91;6377735;27;20108;-74
2023/07/18 03:13:43;;;;;;;12.10;6.60;;;;;;;20.85;100.00;100097.56;6376374;27;20521;-74
2023/07/18 03:16:45;;;;;;;12.77;6.10;;;;;;;20.85;100.00;100102.88;6376186;27;20055;-75
2023/07/18 03:19:46;;;;;;;17.02;7.28;;;;;;;20.84;100.00;100093.28;6355583;27;20491;-74
2023/07/18 03:22:48;;;;;;;8.90;5.13;;;;;;;20.82;100.00;100090.78;6350892;28;20055;-74
2023/07/18 03:25:49;;;;;;;8.68;4.35;;;;;;;20.78;100.00;100094.75;6351115;28;20097;-74
2023/07/18 03:28:52;;;;;;;4.90;3.67;;;;;;;20.79;100.00;100095.56;6350838;28;20051;-74
2023/07/18 03:31:52;;;;;;;4.78;3.63;;;;;;;20.75;100.00;100100.34;6351834;28;20076;-74
2023/07/18 03:34:53;;;;;;;6.13;3.37;;;;;;;20.72;100.00;100111.28;6351424;28;20135;-74
2023/07/18 03:37:56;;;;;;;8.33;3.30;;;;;;;20.61;100.00;100099.13;6351398;28;20135;-74
2023/07/18 03:40:58;;;;;;;4.03;3.40;;;;;;;20.63;100.00;100109.56;6351526;28;20043;-74
2023/07/18 03:44:00;;;;;;;4.00;3.28;;;;;;;20.64;100.00;100108.59;6350504;28;20043;-74
2023/07/18 03:47:00;;;;;;;3.47;3.17;;;;;;;20.75;100.00;100110.94;6349056;28;20517;-74
2023/07/18 03:50:02;;;;;;;4.17;3.27;;;;;;;20.63;100.00;100121.00;6350302;28;20662;-74
2023/07/18 03:53:03;;;;;;;4.90;3.60;;;;;;;20.73;100.00;100129.69;6351444;28;20090;-74
2023/07/18 03:56:07;;;;;;;3.70;3.10;;;;;;;20.79;100.00;100144.09;6349563;28;20047;-74
2023/07/18 03:59:08;;;;;;;4.40;3.60;;;;;;;20.96;100.00;100146.84;6349889;28;20142;-74
2023/07/18 04:02:08;;;;;;;4.93;3.90;;;;;;;20.99;100.00;100146.53;6349991;28;20050;-74
2023/07/18 04:05:10;;;;;;;3.30;2.57;;;;;;;21.02;100.00;100156.81;6351097;28;20380;-74
2023/07/18 04:08:14;;;;;;;3.25;2.50;;;;;;;20.98;100.00;100144.88;6349212;28;20051;-74
2023/07/18 04:11:14;;;;;;;2.92;2.58;;;;;;;20.97;100.00;100146.69;6365029;27;20058;-74
2023/07/18 04:14:15;;;;;;;2.73;2.53;;;;;;;21.00;100.00;100153.50;6374708;27;20603;-74
2023/07/18 04:17:16;;;;;;;4.13;3.27;;;;;;;21.08;100.00;100158.84;6376331;27;20066;-74
2023/07/18 04:20:19;;;;;;;4.70;3.50;;;;;;;21.03;100.00;100161.16;6375871;27;20051;-74
2023/07/18 04:23:20;;;;;;;4.35;3.65;;;;;;;21.01;100.00;100161.31;6375831;27;20498;-74
2023/07/18 04:26:21;;;;;;;3.83;3.40;;;;;;;21.10;100.00;100165.63;6375023;27;20063;-74
2023/07/18 04:29:22;;;;;;;4.80;4.20;;;;;;;21.13;100.00;100170.66;6376013;27;20047;-74
2023/07/18 04:32:22;;;;;;;5.90;4.40;;;;;;;21.18;100.00;100170.16;6374629;27;20065;-74
2023/07/18 04:35:23;;;;;;;9.60;4.80;;;;;;;21.09;100.00;100166.66;6375404;27;20086;-74
2023/07/18 04:38:26;;;;;;;5.63;5.03;;;;;;;21.03;100.00;100172.59;6375355;27;20043;-74
2023/07/18 04:41:31;;;;;;;4.97;4.20;;;;;;;21.09;100.00;100179.91;6375540;27;20062;-74
2023/07/18 04:44:33;;;;;;;8.25;4.88;;;;;;;21.20;100.00;100176.13;6375144;27;20043;-74
2023/07/18 04:47:36;;;;;;;6.63;4.80;;;;;;;21.33;100.00;100175.69;6375073;27;20047;-74
2023/07/18 04:50:37;;;;;;;8.50;5.50;;;;;;;21.41;100.00;100186.31;6375264;27;20051;-74
2023/07/18 04:53:37;;;;;;;8.97;5.40;;;;;;;21.49;100.00;100180.25;6374368;27;20054;-74
2023/07/18 04:56:39;;;;;;;6.60;5.13;;;;;;;21.55;100.00;100187.56;6374069;27;20103;-74
2023/07/18 04:59:41;;;;;;;8.70;5.80;;;;;;;21.58;100.00;100186.41;6373702;27;20112;-74
2023/07/18 05:02:41;;;;;;;7.85;5.63;;;;;;;21.64;100.00;100193.72;6373907;27;20051;-74
2023/07/18 05:05:43;;;;;;;5.53;4.37;;;;;;;21.75;100.00;100192.63;6373875;27;20066;-74
2023/07/18 05:08:43;;;;;;;9.57;5.85;;;;;;;21.74;100.00;100205.03;6372955;27;20047;-74
2023/07/18 05:11:46;;;;;;;7.93;5.70;;;;;;;21.98;100.00;100206.09;6374815;27;20449;-74
2023/07/18 05:14:47;;;;;;;7.25;5.25;;;;;;;22.14;100.00;100195.47;6373360;27;20486;-74
2023/07/18 05:17:48;;;;;;;7.57;5.50;;;;;;;22.00;100.00;100193.47;6373134;27;20055;-74
2023/07/18 05:20:54;;;;;;;8.17;5.07;;;;;;;22.00;100.00;100194.31;6374088;27;20047;-74
2023/07/18 05:23:54;;;;;;;7.13;5.35;;;;;;;22.20;100.00;100200.13;6373217;27;20041;-74
2023/07/18 05:26:58;;;;;;;7.60;5.03;;;;;;;22.44;100.00;100196.66;6373156;27;20070;-74
2023/07/18 05:30:04;;;;;;;8.60;5.97;;;;;;;22.61;100.00;100196.63;6372110;27;20272;-74
2023/07/18 05:33:05;;;;;;;8.77;6.05;;;;;;;22.62;100.00;100196.47;6373126;27;20569;-74
2023/07/18 05:36:05;;;;;;;8.00;5.77;;;;;;;22.91;100.00;100193.25;6372118;27;20054;-74
2023/07/18 05:39:06;;;;;;;6.80;5.43;;;;;;;23.08;100.00;100193.25;6372089;27;20047;-74
2023/07/18 05:42:10;;;;;;;7.97;5.20;;;;;;;23.20;100.00;100204.34;6372994;27;20055;-74
2023/07/18 05:45:10;;;;;;;7.88;5.28;;;;;;;23.18;100.00;100209.84;6372909;27;20108;-74
2023/07/18 05:48:11;;;;;;;5.80;4.43;;;;;;;23.36;100.00;100209.63;6372906;27;20474;-74
2023/07/18 05:51:12;;;;;;;5.73;4.00;;;;;;;23.40;100.00;100215.44;6372815;27;20043;-74
2023/07/18 05:54:12;;;;;;;5.07;3.83;;;;;;;23.40;100.00;100221.56;6372676;27;20039;-74
2023/07/18 05:57:16;;;;;;;7.00;3.57;;;;;;;23.49;100.00;100219.69;6372769;27;20107;-74
2023/07/18 06:00:17;;;;;;;6.47;4.38;;;;;;;23.69;100.00;100228.09;6359553;27;20063;-74
2023/07/18 06:03:18;;;;;;;9.20;4.32;;;;;;;23.64;100.00;100217.97;6352694;27;20079;-74
2023/07/18 06:06:22;;;;;;;5.47;3.90;;;;;;;23.93;100.00;100221.84;6363278;27;20039;-74
2023/07/18 06:09:23;;;;;;;7.55;4.72;;;;;;;23.90;100.00;100217.66;6372226;27;20172;-74
2023/07/18 06:12:23;;;;;;;6.57;4.40;;;;;;;24.03;100.00;100226.91;6372454;27;20050;-73
2023/07/18 06:15:25;;;;;;;5.33;4.07;;;;;;;24.13;100.00;100227.50;6363224;27;20047;-73
2023/07/18 06:18:26;;;;;;;4.90;3.70;;;;;;;24.40;100.00;100225.31;6345322;28;20051;-73
2023/07/18 06:21:27;;;;;;;4.30;3.90;;;;;;;24.52;100.00;100239.91;6369455;27;20434;-73
2023/07/18 06:24:28;;;;;;;7.50;3.63;;;;;;;24.50;98.54;100233.91;6370590;27;20147;-73
2023/07/18 06:27:31;;;;;;;7.60;3.50;;;;;;;24.80;95.54;100231.31;6371808;27;20099;-73
2023/07/18 06:30:32;;;;;;;3.42;2.67;;;;;;;24.94;96.11;100239.34;6371868;27;20324;-73
2023/07/18 06:33:32;;;;;;;5.10;3.57;;;;;;;25.02;95.89;100230.44;6370671;28;20047;-73
2023/07/18 06:36:33;;;;;;;3.80;3.00;;;;;;;24.90;92.21;100230.03;6359239;27;20043;-73
2023/07/18 06:39:36;;;;;;;3.40;3.10;;;;;;;25.11;96.13;100231.97;6359331;27;20043;-73
2023/07/18 06:42:37;;;;;;;5.18;3.15;;;;;;;25.19;92.94;100235.59;6365272;27;20051;-73
2023/07/18 06:45:38;;;;;;;7.60;3.20;;;;;;;25.47;91.91;100227.75;6346867;28;20052;-73
2023/07/18 06:48:38;;;;;;;5.20;3.73;;;;;;;25.32;91.31;100227.75;6349513;28;20058;-73
2023/07/18 06:51:39;;;;;;;5.17;3.37;;;;;;;25.38;91.39;100235.03;6367233;28;20051;-73
2023/07/18 06:54:42;;;;;;;3.60;3.20;;;;;;;25.49;92.02;100229.22;6371756;27;20051;-73
2023/07/18 06:57:45;;;;;;;5.70;3.53;;;;;;;25.96;91.00;100245.00;6370641;28;20096;-73
2023/07/18 07:00:46;;;;;;;3.83;3.15;;;;;;;25.56;88.16;100233.81;6369245;27;20403;-73
2023/07/18 07:03:47;;;;;;;6.07;3.50;;;;;;;25.74;89.11;100226.22;6367497;28;20046;-73
2023/07/18 07:06:48;;;;;;;5.30;3.85;;;;;;;26.24;86.76;100223.69;6370493;28;20070;-73
2023/07/18 07:09:48;;;;;;;5.27;4.00;;;;;;;26.16;84.47;100227.31;6371703;27;20133;-73
2023/07/18 07:12:49;;;;;;;4.50;3.40;;;;;;;26.34;84.92;100229.53;6370756;28;20725;-72
2023/07/18 07:15:50;;;;;;;4.50;3.90;;;;;;;26.45;84.25;100223.66;6359649;28;20035;-72
2023/07/18 07:18:53;;;;;;;7.07;3.40;;;;;;;26.56;79.09;100232.16;6347648;28;20051;-72
2023/07/18 07:21:54;;;;;;;8.57;3.97;;;;;;;26.82;83.59;100237.75;6371756;27;20138;-72
2023/07/18 07:24:55;;;;;;;5.90;3.80;;;;;;;26.82;80.67;100243.09;6365448;27;20039;-72
2023/07/18 07:27:56;;;;;;;8.50;4.70;;;;;;;26.76;78.21;100237.72;6367200;28;20482;-72
2023/07/18 07:31:00;;;;;;;5.28;4.18;;;;;;;26.94;79.79;100246.88;6360804;27;20131;-72
2023/07/18 07:34:01;;;;;;;5.15;3.67;;;;;;;26.51;80.92;100252.31;6372766;27;20058;-72
2023/07/18 07:37:02;;;;;;;5.13;3.73;;;;;;;27.14;83.14;100255.06;6372352;27;20047;-72
2023/07/18 07:40:06;;;;;;;4.97;3.97;;;;;;;27.29;75.00;100257.63;6375934;27;20287;-72
2023/07/18 07:43:07;;;;;;;4.82;3.67;;;;;;;27.56;75.89;100255.06;6375966;27;20057;-72
2023/07/18 07:46:08;;;;;;;6.03;3.85;;;;;;;27.67;75.72;100249.13;6374903;27;20047;-72
2023/07/18 07:49:09;;;;;;;5.10;3.38;;;;;;;28.09;77.40;100260.63;6374583;27;20047;-72
2023/07/18 07:52:11;;;;;;;5.85;3.90;;;;;;;27.81;72.77;100251.88;6374363;27;20525;-72
2023/07/18 07:55:15;;;;;;;4.35;3.45;;;;;;;28.25;73.33;100246.00;6375855;27;20083;-72
2023/07/18 07:58:16;;;;;;;4.38;3.13;;;;;;;28.58;76.66;100255.97;6374213;27;20050;-72
2023/07/18 08:01:16;;;;;;;5.60;3.40;;;;;;;28.13;75.18;100255.69;6374458;27;20055;-72
2023/07/18 08:04:17;;;;;;;4.25;3.30;;;;;;;28.60;74.43;100250.38;6371139;27;20157;-72
2023/07/18 08:07:20;;;;;;;12.27;3.67;;;;;;;28.65;72.39;100256.78;6371493;27;20051;-73
2023/07/18 08:10:21;;;;;;;3.92;3.30;;;;;;;28.48;70.10;100258.22;6371562;27;20047;-72
2023/07/18 08:13:22;;;;;;;4.18;3.00;;;;;;;28.33;68.27;100251.19;6377161;27;20088;-72
2023/07/18 08:16:22;;;;;;;5.70;3.03;;;;;;;28.84;68.61;100262.34;6372809;27;20047;-72
2023/07/18 08:19:23;;;;;;;5.85;2.95;;;;;;;28.62;67.68;100261.72;6372734;27;20047;-72
2023/07/18 08:22:24;;;;;;;3.75;2.70;;;;;;;28.94;70.49;100255.50;6351681;27;20051;-72
2023/07/18 08:25:25;;;;;;;4.03;3.05;;;;;;;29.19;67.67;100260.22;6361877;27;20044;-72
2023/07/18 08:28:26;;;;;;;5.30;3.55;;;;;;;29.22;68.57;100257.13;6372293;27;20480;-73
2023/07/18 08:31:29;;;;;;;4.80;3.00;;;;;;;28.76;64.91;100254.50;6364056;27;20047;-72
2023/07/18 08:34:30;;;;;;;5.90;3.00;;;;;;;28.96;65.66;100265.22;6373641;27;20115;-72
2023/07/18 08:37:33;;;;;;;3.60;2.95;;;;;;;28.98;67.06;100261.28;6370562;27;20047;-73
2023/07/18 08:40:34;;;;;;;3.30;2.60;;;;;;;28.61;64.33;100252.03;6376994;27;20047;-71
2023/07/18 08:43:37;;;;;;;3.65;2.80;;;;;;;29.28;63.33;100255.44;6372487;27;20078;-72
2023/07/18 08:46:39;;;;;;;6.72;2.85;;;;;;;29.49;64.32;100252.50;6367161;27;20141;-72
2023/07/18 08:49:40;;;;;;;4.60;3.13;;;;;;;29.99;63.66;100254.53;6366622;27;20510;-72
2023/07/18 08:52:41;;;;;;;5.13;3.00;;;;;;;30.12;62.67;100254.47;6354504;27;20051;-72
2023/07/18 08:55:43;;;;;;;3.05;2.58;;;;;;;29.92;60.52;100248.38;6374007;27;20050;-72
2023/07/18 08:58:44;;;;;;;3.40;2.60;;;;;;;30.49;60.67;100240.34;6373898;27;20050;-72
2023/07/18 09:01:51;;;;;;;4.22;2.50;;;;;;;30.39;58.46;100240.81;6372987;27;20126;-71
2023/07/18 09:04:52;;;;;;;4.80;2.97;;;;;;;30.81;55.48;100240.28;6373816;27;20040;-72
2023/07/18 09:07:55;;;;;;;3.95;2.55;;;;;;;30.34;57.90;100251.44;6359396;27;20063;-71
2023/07/18 09:11:03;;;;;;;4.43;3.00;;;;;;;30.99;57.20;100240.31;6357164;27;20055;-71
2023/07/18 09:14:04;;;;;;;5.07;3.08;;;;;;;31.15;56.33;100238.06;6348489;27;20051;-71
2023/07/18 09:17:07;;;;;;;4.72;2.60;;;;;;;30.90;51.96;100239.78;6355287;27;20054;-71
2023/07/18 09:20:09;;;;;;;4.05;2.40;;;;;;;31.11;52.24;100243.91;6373621;27;20051;-72
2023/07/18 09:23:09;;;;;;;3.63;2.70;;;;;;;30.73;54.66;100244.06;6364763;27;20050;-71
2023/07/18 09:26:13;;;;;;;3.10;2.28;;;;;;;30.81;51.76;100242.97;6348673;27;20051;-72
2023/07/18 09:29:14;;;;;;;2.38;1.98;;;;;;;30.49;52.77;100232.25;6369604;27;20043;-72
2023/07/18 09:32:17;;;;;;;3.60;2.28;;;;;;;31.41;51.97;100243.16;6373006;27;20047;-72
2023/07/18 09:35:18;;;;;;;3.38;2.35;;;;;;;31.30;50.64;100238.53;6371794;27;20051;-71
2023/07/18 09:38:20;;;;;;;4.05;2.53;;;;;;;31.00;51.42;100233.06;6366301;27;20051;-72
2023/07/18 09:41:22;;;;;;;3.13;2.45;;;;;;;30.87;49.70;100236.69;6373130;27;20047;-71
2023/07/18 09:44:25;;;;;;;2.95;2.15;;;;;;;31.41;52.10;100236.94;6362777;27;20152;-72
2023/07/18 09:47:28;;;;;;;4.82;2.35;;;;;;;32.02;53.15;100232.41;6364857;27;20475;-72
2023/07/18 09:50:33;;;;;;;2.45;2.10;;;;;;;31.16;51.06;100237.03;6356498;27;20131;-72
2023/07/18 09:53:37;;;;;;;3.85;2.22;;;;;;;31.59;51.46;100236.94;6346314;27;20048;-72
2023/07/18 09:56:39;;;;;;;5.70;2.47;;;;;;;30.77;49.19;100229.09;6357406;27;20141;-71
2023/07/18 09:59:40;;;;;;;3.28;2.35;;;;;;;30.63;49.16;100233.78;6361849;27;20058;-71
2023/07/18 10:02:42;;;;;;;5.05;2.55;;;;;;;31.49;49.96;100226.69;6371930;27;20433;-72
2023/07/18 10:05:43;;;;;;;3.00;2.30;;;;;;;31.74;50.06;100225.75;6362411;27;20097;-72
2023/07/18 10:08:49;;;;;;;5.03;2.33;;;;;;;31.66;46.42;100218.78;6353127;27;20051;-72
2023/07/18 10:12:03;;;;;;;3.03;2.08;;;;;;;32.11;45.36;100221.06;6346890;28;20052;-72
2023/07/18 10:15:04;;;;;;;3.67;2.20;;;;;;;31.79;46.70;100217.78;6345638;28;20536;-72
2023/07/18 10:18:18;;;;;;;2.88;2.05;;;;;;;32.41;48.18;100227.44;6346821;28;20495;-72
2023/07/18 10:21:36;;;;;;;2.70;2.20;;;;;;;32.20;46.04;100223.44;6354176;27;20423;-72
2023/07/18 10:24:49;;;;;;;3.45;2.38;;;;;;;31.55;43.88;100224.97;6357555;27;20043;-72
2023/07/18 10:27:49;;;;;;;4.60;2.67;;;;;;;32.38;44.97;100211.72;6362089;28;20054;-72
2023/07/18 10:30:50;;;;;;;;;;;;;;;32.23;43.95;100214.88;6361023;27;20414;-72
2023/07/18 10:34:11;;;;;;;3.40;2.50;;;;;;;32.63;45.24;100215.03;6347085;28;19920;-72
2023/07/18 10:37:23;;;;;;;3.65;2.40;;;;;;;33.00;43.96;100205.84;6371104;28;20142;-72
2023/07/18 10:40:35;;;;;;;3.42;2.35;;;;;;;33.41;42.64;100202.09;6371967;27;20099;-72
2023/07/18 10:43:47;;;;;;;4.25;2.30;;;;;;;32.99;44.62;100193.38;6372419;27;20134;-72
2023/07/18 10:46:47;;;;;;;3.30;2.20;;;;;;;32.81;44.68;100184.38;6365250;27;20058;-72
2023/07/18 10:49:48;;;;;;;;;;;;;;;32.46;43.94;100192.47;6368426;27;20056;-72
2023/07/18 10:52:49;;;;;;;3.58;2.30;;;;;;;32.77;44.31;100185.91;6346515;28;19933;-72
2023/07/18 10:55:50;;;;;;;;;;;;;;;32.79;43.51;100183.78;6345831;28;20404;-72
2023/07/18 10:58:53;;;;;;;3.40;2.33;;;;;;;32.59;41.75;100184.16;6356610;28;20002;-72
2023/07/18 11:01:58;;;;;;;2.40;2.00;;;;;;;32.55;40.12;100180.28;6371670;27;20441;-72
2023/07/18 11:05:10;;;;;;;3.10;2.42;;;;;;;32.31;42.31;100182.97;6362434;27;20046;-72
2023/07/18 11:08:22;;;;;;;4.85;2.25;;;;;;;33.41;42.55;100183.19;6374953;27;20055;-72
2023/07/18 11:11:27;;;;;;;4.47;2.67;;;;;;;33.62;41.78;100172.75;6366433;27;20047;-72
2023/07/18 11:14:39;;;;;;;4.88;2.05;;;;;;;33.47;40.31;100170.56;6375942;27;20682;-72
2023/07/18 11:17:43;;;;;;;3.47;1.95;;;;;;;32.81;37.80;100165.47;6356682;27;20075;-72
2023/07/18 11:20:45;;;;;;;2.40;2.10;;;;;;;33.70;38.66;100159.66;6369261;27;20043;-72
2023/07/18 11:23:46;;;;;;;3.60;2.47;;;;;;;32.57;40.80;100169.25;6371120;27;20123;-72
2023/07/18 11:26:47;;;;;;;5.50;3.03;;;;;;;31.61;44.80;100156.63;6369020;27;20060;-72
2023/07/18 11:30:03;;;;;;;6.72;2.92;;;;;;;31.15;46.13;100166.13;6350938;27;20495;-72
2023/07/18 11:33:12;;;;;;;3.92;3.13;;;;;;;31.65;48.67;100163.22;6366157;27;20053;-72
2023/07/18 11:36:12;;;;;;;4.05;2.47;;;;;;;33.05;46.51;100162.69;6373419;27;20071;-72
2023/07/18 11:39:19;;;;;;;;;;;;;;;33.70;46.63;100151.53;6365979;27;20048;-72
2023/07/18 11:42:20;;;;;;;3.95;2.38;;;;;;;32.82;43.67;100144.66;6370079;27;20290;-72
2023/07/18 11:45:22;;;;;;;4.53;2.67;;;;;;;32.97;42.87;100146.84;6374627;27;20047;-72
2023/07/18 11:48:25;;;;;;;2.85;2.25;;;;;;;33.25;37.89;100144.19;6357215;27;20068;-72
2023/07/18 11:51:27;;;;;;;4.40;2.50;;;;;;;33.15;36.52;100144.00;6357416;27;20130;-72
2023/07/18 11:54:28;;;;;;;3.20;2.50;;;;;;;32.96;45.58;100145.22;6363208;27;20055;-72
2023/07/18 11:57:29;;;;;;;5.03;3.67;;;;;;;33.50;45.31;100140.31;6348937;28;20112;-72
2023/07/18 12:00:30;;;;;;;2.55;2.35;;;;;;;33.80;40.67;100140.09;6355504;27;20043;-73
2023/07/18 12:03:30;;;;;;;4.50;2.20;;;;;;;33.83;39.82;100138.75;6375883;27;20050;-72
2023/07/18 12:06:33;;;;;;;2.40;2.17;;;;;;;33.39;43.71;100135.81;6374366;27;20054;-72
2023/07/18 12:09:34;;;;;;;3.22;2.13;;;;;;;33.86;39.90;100119.34;6374181;27;20108;-72
2023/07/18 12:12:35;;;;;;;2.85;2.28;;;;;;;33.83;37.16;100115.25;6373939;27;20051;-72
2023/07/18 12:15:36;;;;;;;3.58;2.30;;;;;;;34.17;40.33;100114.44;6375203;27;20069;-72
2023/07/18 12:18:38;;;;;;;3.03;2.25;;;;;;;33.86;37.43;100120.16;6367084;27;20051;-72
2023/07/18 12:21:39;;;;;;;3.35;2.20;;;;;;;34.47;41.53;100111.31;6373366;27;20422;-72
2023/07/18 12:24:39;;;;;;;6.53;2.72;;;;;;;33.90;37.26;100110.47;6371924;27;20043;-72
2023/07/18 12:27:40;;;;;;;2.97;2.22;;;;;;;34.37;40.04;100111.19;6371179;27;20055;-72
2023/07/18 12:30:41;;;;;;;3.40;2.03;;;;;;;33.83;35.54;100103.59;6365733;27;20058;-72
2023/07/18 12:33:43;;;;;;;4.63;2.40;;;;;;;33.25;35.79;100109.06;6347622;28;20058;-72
2023/07/18 12:36:48;;;;;;;2.67;2.30;;;;;;;34.01;36.60;100106.03;6349094;28;20074;-72
2023/07/18 12:39:49;;;;;;;3.13;2.08;;;;;;;34.40;39.05;100099.88;6370863;27;20145;-72
2023/07/18 12:42:50;;;;;;;5.20;2.13;;;;;;;34.75;38.63;100101.44;6374493;27;20128;-72
2023/07/18 12:45:51;;;;;;;3.13;2.10;;;;;;;34.38;37.47;100102.81;6374526;27;20092;-72
2023/07/18 12:48:52;;;;;;;3.40;2.08;;;;;;;34.27;35.73;100099.16;6357522;27;20047;-72
2023/07/18 12:51:53;;;;;;;2.92;2.00;;;;;;;33.46;38.17;100099.44;6347362;28;20565;-72
2023/07/18 12:54:56;;;;;;;2.75;2.25;;;;;;;31.93;43.72;100097.81;6348640;28;20043;-72
2023/07/18 12:57:57;;;;;;;3.15;2.28;;;;;;;32.31;45.42;100087.66;6347632;28;20048;-72
2023/07/18 13:00:57;;;;;;;2.20;1.92;;;;;;;32.90;43.88;100098.34;6364591;27;20112;-72
2023/07/18 13:04:02;;;;;;;2.30;2.00;;;;;;;33.24;44.57;100085.81;6347263;28;20047;-72
2023/07/18 13:07:03;;;;;;;3.63;2.10;;;;;;;33.77;44.43;100080.22;6348617;28;20061;-72
2023/07/18 13:10:04;;;;;;;3.88;2.42;;;;;;;33.77;41.44;100074.81;6348418;28;20048;-72
2023/07/18 13:13:07;;;;;;;3.80;2.30;;;;;;;34.01;42.28;100078.16;6348004;28;20051;-72
2023/07/18 13:16:07;;;;;;;4.13;2.10;;;;;;;34.10;43.22;100069.38;6388069;27;20457;-72
2023/07/18 13:19:08;;;;;;;2.55;2.15;;;;;;;34.01;40.44;100062.72;6346819;28;20101;-72
2023/07/18 13:22:09;;;;;;;3.00;2.22;;;;;;;34.05;38.83;100065.78;6353843;27;20108;-72
2023/07/18 13:25:10;;;;;;;2.95;1.98;;;;;;;34.01;38.65;100054.63;6363120;27;20047;-72
2023/07/18 13:28:13;;;;;;;3.00;1.90;;;;;;;34.02;43.93;100056.28;6373002;27;20047;-72
2023/07/18 13:31:14;;;;;;;2.28;1.80;;;;;;;34.02;38.31;100058.97;6355582;27;20192;-72
2023/07/18 13:34:17;;;;;;;2.60;1.90;;;;;;;34.09;40.79;100058.78;6346027;28;20515;-73
2023/07/18 13:37:18;;;;;;;4.53;2.30;;;;;;;33.41;39.86;100050.69;6361220;27;20089;-73
2023/07/18 13:40:19;;;;;;;3.72;2.20;;;;;;;32.50;39.53;100054.03;6372949;27;20091;-73
2023/07/18 13:43:22;;;;;;;3.22;1.90;;;;;;;31.78;40.69;100051.59;6371611;27;20138;-73
2023/07/18 13:46:23;;;;;;;1.88;1.70;;;;;;;33.13;40.61;100043.41;6372834;27;20107;-73
2023/07/18 13:49:25;;;;;;;3.42;1.90;;;;;;;33.24;42.60;100042.56;6372046;27;20055;-72
2023/07/18 13:52:30;;;;;;;3.10;1.88;;;;;;;33.21;41.89;100043.03;6372575;27;20403;-73
2023/07/18 13:55:30;;;;;;;3.80;2.13;;;;;;;33.30;41.59;100040.75;6372823;27;20046;-72
2023/07/18 13:58:31;;;;;;;3.85;2.10;;;;;;;32.78;38.50;100040.84;6372453;27;20086;-72
2023/07/18 14:01:32;;;;;;;2.20;2.00;;;;;;;33.24;43.43;100031.72;6372941;27;20490;-72
2023/07/18 14:04:33;;;;;;;2.28;1.88;;;;;;;33.47;41.33;100033.47;6372449;27;20043;-72